createdAt,value
2018-10-21T00:02:30.432Z,102056.22
2018-10-21T00:05:04.262Z,102054.89
2018-10-21T00:07:38.199Z,102060.81
2018-10-21T00:10:12.238Z,102057.80
2018-10-21T00:12:46.080Z,102054.86
2018-10-21T00:15:20.014Z,102052.73
2018-10-21T00:17:53.908Z,102054.42
2018-10-21T00:20:27.730Z,102048.46
2018-10-21T00:23:01.565Z,102042.08
2018-10-21T00:25:35.465Z,102039.95
2018-10-21T00:28:09.512Z,102042.96
2018-10-21T00:30:43.309Z,102043.78
2018-10-21T00:33:17.320Z,102042.96
2018-10-21T00:35:51.123Z,102051.00
2018-10-21T00:38:24.966Z,102044.64
2018-10-21T00:40:58.831Z,102042.06
2018-10-21T00:43:32.816Z,102049.28
2018-10-21T00:46:06.869Z,102047.61
2018-10-21T00:48:40.724Z,102044.63
2018-10-21T00:51:14.658Z,102039.08
2018-10-21T00:53:48.590Z,102042.52
2018-10-21T00:56:22.671Z,102037.83
2018-10-21T00:58:56.676Z,102040.41
2018-10-21T01:01:30.489Z,102035.72
2018-10-21T01:04:04.426Z,102038.73
2018-10-21T01:06:38.307Z,102040.05
2018-10-21T01:09:13.639Z,102041.31
2018-10-21T01:11:47.463Z,102049.42
2018-10-21T01:14:21.512Z,102040.91
2018-10-21T01:16:55.348Z,102032.82
2018-10-21T01:19:29.295Z,102031.14
2018-10-21T01:22:03.111Z,102026.05
2018-10-21T01:24:37.110Z,102028.20
2018-10-21T01:27:11.023Z,102030.73
2018-10-21T01:29:47.808Z,102028.20
2018-10-21T01:32:21.652Z,102023.50
2018-10-21T01:34:55.503Z,102024.36
2018-10-21T01:37:29.420Z,102027.77
2018-10-21T01:43:16.869Z,102020.53
2018-10-21T01:45:50.785Z,102021.80
2018-10-21T01:48:25.678Z,102016.23
2018-10-21T01:50:59.499Z,102009.43
2018-10-21T01:53:33.393Z,102009.00
2018-10-21T01:56:07.238Z,102000.08
2018-10-21T01:58:41.099Z,101999.25
2018-10-21T02:01:14.857Z,101995.86
2018-10-21T02:03:48.726Z,101996.27
2018-10-21T02:06:22.548Z,101992.04
2018-10-21T02:08:56.448Z,101986.05
2018-10-21T02:11:30.242Z,101978.81
2018-10-21T02:14:04.139Z,101975.41
2018-10-21T02:16:38.001Z,101976.27
2018-10-21T02:19:11.906Z,101983.08
2018-10-21T02:21:45.730Z,101975.01
2018-10-21T02:24:19.597Z,101973.30
2018-10-21T02:26:53.478Z,101964.80
2018-10-21T02:29:27.416Z,101970.76
2018-10-21T02:32:01.324Z,101967.36
2018-10-21T02:34:35.239Z,101963.51
2018-10-21T02:37:09.079Z,101969.48
2018-10-21T02:39:42.932Z,101976.73
2018-10-21T02:42:16.825Z,101975.05
2018-10-21T02:44:50.755Z,101973.35
2018-10-21T02:47:24.604Z,101981.44
2018-10-21T02:49:58.474Z,101980.58
2018-10-21T02:52:32.293Z,101988.23
2018-10-21T02:55:06.349Z,101992.97
2018-10-21T02:57:40.234Z,102001.48
2018-10-21T03:00:14.192Z,102003.19
2018-10-21T03:02:48.044Z,101998.94
2018-10-21T03:05:21.959Z,102001.91
2018-10-21T03:07:55.779Z,102005.34
2018-10-21T03:10:29.653Z,102009.61
2018-10-21T03:13:03.471Z,102016.42
2018-10-21T03:15:37.332Z,102014.72
2018-10-21T03:18:11.169Z,102008.77
2018-10-21T03:20:45.227Z,102014.74
2018-10-21T03:23:19.072Z,102011.74
2018-10-21T03:25:52.975Z,102008.77
2018-10-21T03:28:26.818Z,102001.51
2018-10-21T03:31:00.862Z,101999.40
2018-10-21T03:33:34.708Z,101998.12
2018-10-21T03:36:08.649Z,101993.84
2018-10-21T03:38:42.450Z,101992.56
2018-10-21T03:41:16.329Z,102001.51
2018-10-21T03:43:50.210Z,101995.13
2018-10-21T03:46:24.170Z,101996.83
2018-10-21T03:48:57.953Z,101983.61
2018-10-21T03:51:31.912Z,101987.04
2018-10-21T03:54:05.769Z,101987.44
2018-10-21T03:56:39.770Z,101990.00
2018-10-21T03:59:13.603Z,101992.14
2018-10-21T04:01:47.516Z,101994.28
2018-10-21T04:04:21.341Z,101993.00
2018-10-21T04:06:55.158Z,102003.23
2018-10-21T04:09:29.088Z,102007.50
2018-10-21T04:12:02.935Z,102004.50
2018-10-21T04:14:36.746Z,102005.78
2018-10-21T04:17:10.608Z,102000.23
2018-10-21T04:19:44.437Z,101999.83
2018-10-21T04:22:18.243Z,102000.23
2018-10-21T04:24:52.043Z,102007.92
2018-10-21T04:27:25.986Z,102004.52
2018-10-21T04:29:59.838Z,102003.22
2018-10-21T04:32:34.575Z,102003.21
2018-10-21T04:35:08.017Z,102007.90
2018-10-21T04:38:24.571Z,102007.05
2018-10-21T04:40:58.417Z,102003.66
2018-10-21T04:43:32.337Z,102003.22
2018-10-21T04:46:06.567Z,101999.37
2018-10-21T04:48:40.416Z,101996.40
2018-10-21T04:51:14.249Z,101987.45
2018-10-21T04:53:48.111Z,101982.31
2018-10-21T04:56:22.020Z,101984.45
2018-10-21T04:58:55.905Z,101985.30
2018-10-21T05:01:29.703Z,101979.77
2018-10-21T05:04:03.633Z,101987.85
2018-10-21T05:06:37.484Z,101990.38
2018-10-21T05:09:11.449Z,101985.27
2018-10-21T05:11:45.307Z,101989.09
2018-10-21T05:14:19.281Z,101983.97
2018-10-21T05:16:53.187Z,101986.95
2018-10-21T05:19:27.193Z,101983.53
2018-10-21T05:22:01.120Z,101985.63
2018-10-21T05:24:34.946Z,101985.62
2018-10-21T05:27:09.020Z,101977.95
2018-10-21T05:29:42.995Z,101978.77
2018-10-21T05:32:16.824Z,101981.75
2018-10-21T05:34:50.825Z,101985.09
2018-10-21T05:37:24.672Z,101983.80
2018-10-21T05:39:58.696Z,101982.91
2018-10-21T05:42:32.572Z,101988.42
2018-10-21T05:45:07.445Z,101983.32
2018-10-21T05:47:41.639Z,101981.59
2018-10-21T05:50:16.393Z,101981.60
2018-10-21T05:52:50.261Z,101986.28
2018-10-21T05:55:24.178Z,101985.00
2018-10-21T05:57:58.166Z,101984.59
2018-10-21T06:00:32.037Z,101982.49
2018-10-21T06:03:05.997Z,101981.64
2018-10-21T06:05:43.180Z,101988.07
2018-10-21T06:08:17.137Z,101991.03
2018-10-21T06:10:50.983Z,101988.95
2018-10-21T06:13:24.820Z,101991.97
2018-10-21T06:15:58.682Z,101995.81
2018-10-21T06:18:32.605Z,101994.98
2018-10-21T06:21:07.158Z,101990.75
2018-10-21T06:23:41.098Z,101992.47
2018-10-21T06:26:14.907Z,101993.75
2018-10-21T06:28:48.717Z,101988.66
2018-10-21T06:31:22.717Z,101994.20
2018-10-21T06:33:56.616Z,101997.62
2018-10-21T06:36:30.572Z,101995.06
2018-10-21T06:39:05.537Z,102000.20
2018-10-21T06:41:39.384Z,102008.73
2018-10-21T06:44:13.247Z,102001.94
2018-10-21T06:46:47.114Z,102008.75
2018-10-21T06:49:20.962Z,102016.00
2018-10-21T06:51:54.833Z,102018.97
2018-10-21T06:54:28.678Z,102017.73
2018-10-21T06:57:02.641Z,102027.52
2018-10-21T06:59:36.441Z,102026.23
2018-10-21T07:02:10.298Z,102026.25
2018-10-21T07:04:44.291Z,102025.39
2018-10-21T07:07:18.136Z,102023.67
2018-10-21T07:09:51.970Z,102022.81
2018-10-21T07:12:25.843Z,102022.38
2018-10-21T07:14:59.673Z,102018.55
2018-10-21T07:17:33.614Z,102020.27
2018-10-21T07:20:07.528Z,102022.39
2018-10-21T07:22:42.257Z,102021.47
2018-10-21T07:25:16.082Z,102027.00
2018-10-21T07:27:50.075Z,102027.41
2018-10-21T07:30:23.861Z,102027.77
2018-10-21T07:32:57.749Z,102034.55
2018-10-21T07:35:31.554Z,102026.33
2018-10-21T07:38:05.549Z,102028.80
2018-10-21T07:40:39.350Z,102030.84
2018-10-21T07:43:13.280Z,102031.98
2018-10-21T07:45:47.073Z,102041.73
2018-10-21T07:48:21.122Z,102045.02
2018-10-21T07:50:55.036Z,102038.09
2018-10-21T07:53:28.881Z,102042.67
2018-10-21T07:56:02.723Z,102050.23
2018-10-21T07:58:36.643Z,102052.28
2018-10-21T08:01:10.477Z,102054.77
2018-10-21T08:03:44.298Z,102057.15
2018-10-21T08:06:35.599Z,102054.02
2018-10-21T08:09:11.189Z,102053.10
2018-10-21T08:11:45.019Z,102056.41
2018-10-21T08:14:18.984Z,102057.16
2018-10-21T08:16:52.809Z,102060.91
2018-10-21T08:19:26.675Z,102070.64
2018-10-21T08:22:00.503Z,102065.90
2018-10-21T08:24:34.421Z,102064.94
2018-10-21T08:27:08.293Z,102068.69
2018-10-21T08:29:42.169Z,102063.86
2018-10-21T08:32:16.017Z,102064.22
2018-10-21T08:34:49.858Z,102053.28
2018-10-21T08:37:23.720Z,102057.78
2018-10-21T08:39:57.621Z,102052.89
2018-10-21T08:42:31.449Z,102055.14
2018-10-21T08:45:05.393Z,102047.05
2018-10-21T08:47:39.308Z,102048.43
2018-10-21T08:50:14.071Z,102051.09
2018-10-21T08:52:47.932Z,102052.55
2018-10-21T08:55:21.789Z,102044.30
2018-10-21T08:57:55.666Z,102044.14
2018-10-21T09:00:29.636Z,102042.28
2018-10-21T09:03:03.472Z,102048.66
2018-10-21T09:05:37.454Z,102041.61
2018-10-21T09:08:11.315Z,102041.78
2018-10-21T09:10:45.314Z,102041.20
2018-10-21T09:13:19.118Z,102042.44
2018-10-21T09:15:52.995Z,102040.11
2018-10-21T09:18:26.820Z,102034.64
2018-10-21T09:21:00.682Z,102030.52
2018-10-21T09:23:34.542Z,102030.76
2018-10-21T09:26:08.445Z,102027.21
2018-10-21T09:28:42.279Z,102027.27
2018-10-21T09:31:16.158Z,102028.38
2018-10-21T09:33:50.277Z,102025.64
2018-10-21T09:36:24.287Z,102029.86
2018-10-21T09:38:58.110Z,102025.21
2018-10-21T09:41:32.041Z,102029.64
2018-10-21T09:44:06.143Z,102031.75
2018-10-21T09:46:40.776Z,102020.52
2018-10-21T09:49:14.676Z,102016.02
2018-10-21T09:51:48.551Z,102014.57
2018-10-21T09:54:22.379Z,102014.83
2018-10-21T09:56:56.462Z,102012.77
2018-10-21T09:59:30.396Z,102012.83
2018-10-21T10:02:09.526Z,102016.90
2018-10-21T10:04:43.378Z,102017.45
2018-10-21T10:07:17.316Z,102015.85
2018-10-21T10:09:51.224Z,102012.11
2018-10-21T10:12:25.094Z,102014.81
2018-10-21T10:14:58.969Z,102007.48
2018-10-21T10:17:32.915Z,102012.50
2018-10-21T10:20:08.266Z,102008.37
2018-10-21T10:22:42.149Z,101998.54
2018-10-21T10:25:16.029Z,102000.55
2018-10-21T10:27:50.001Z,102001.31
2018-10-21T10:30:23.871Z,101995.13
2018-10-21T10:32:57.740Z,101992.27
2018-10-21T10:35:31.678Z,101992.27
2018-10-21T10:38:05.639Z,101992.03
2018-10-21T10:40:39.549Z,101996.04
2018-10-21T10:43:13.449Z,101984.48
2018-10-21T10:45:47.302Z,101990.23
2018-10-21T10:48:21.157Z,101986.42
2018-10-21T10:50:54.999Z,101991.83
2018-10-21T10:53:28.937Z,101992.83
2018-10-21T10:56:02.796Z,101984.52
2018-10-21T10:58:36.657Z,101991.14
2018-10-21T11:01:10.546Z,101980.48
2018-10-21T11:03:44.412Z,101975.94
2018-10-21T11:06:18.289Z,101968.63
2018-10-21T11:08:52.088Z,101968.22
2018-10-21T11:11:25.919Z,101972.33
2018-10-21T11:13:59.857Z,101969.84
2018-10-21T11:16:33.699Z,101974.34
2018-10-21T11:19:07.596Z,101968.71
2018-10-21T11:21:41.534Z,101964.31
2018-10-21T11:24:15.393Z,101957.19
2018-10-21T11:26:49.381Z,101956.98
2018-10-21T11:29:23.378Z,101964.69
2018-10-21T11:31:57.185Z,101959.68
2018-10-21T11:34:31.059Z,101966.34
2018-10-21T11:37:04.934Z,101956.61
2018-10-21T11:39:39.034Z,101956.73
2018-10-21T11:42:12.892Z,101950.55
2018-10-21T11:44:46.731Z,101945.33
2018-10-21T11:47:20.582Z,101946.98
2018-10-21T11:49:54.492Z,101941.19
2018-10-21T11:52:28.465Z,101942.48
2018-10-21T11:55:02.457Z,101935.23
2018-10-21T11:57:36.308Z,101937.37
2018-10-21T12:00:10.680Z,101939.89
2018-10-21T12:02:44.525Z,101938.55
2018-10-21T12:05:18.383Z,101931.45
2018-10-21T12:07:52.235Z,101934.77
2018-10-21T12:10:26.084Z,101928.59
2018-10-21T12:13:00.030Z,101932.59
2018-10-21T12:15:34.331Z,101926.66
2018-10-21T12:18:08.835Z,101930.25
2018-10-21T12:20:42.722Z,101928.96
2018-10-21T12:23:16.570Z,101919.44
2018-10-21T12:25:50.417Z,101920.91
2018-10-21T12:28:24.235Z,101923.42
2018-10-21T12:30:58.099Z,101920.80
2018-10-21T12:33:36.099Z,101919.22
2018-10-21T12:36:10.199Z,101911.66
2018-10-21T12:38:44.088Z,101912.44
2018-10-21T12:41:18.116Z,101915.94
2018-10-21T12:43:51.942Z,101910.36
2018-10-21T12:46:25.836Z,101913.16
2018-10-21T12:48:59.744Z,101906.78
2018-10-21T12:51:33.619Z,101904.36
2018-10-21T12:54:07.571Z,101904.65
2018-10-21T12:56:41.358Z,101900.41
2018-10-21T12:59:15.265Z,101896.95
2018-10-21T13:01:49.152Z,101893.55
2018-10-21T13:04:23.007Z,101890.05
2018-10-21T13:06:56.874Z,101888.38
2018-10-21T13:09:30.696Z,101891.80
2018-10-21T13:12:04.586Z,101888.20
2018-10-21T13:14:38.427Z,101885.52
2018-10-21T13:17:12.307Z,101883.56
2018-10-21T13:19:46.171Z,101880.81
2018-10-21T13:22:20.087Z,101878.64
2018-10-21T13:24:53.940Z,101882.62
2018-10-21T13:27:27.783Z,101881.14
2018-10-21T13:30:01.607Z,101873.22
2018-10-21T13:32:35.474Z,101875.46
2018-10-21T13:35:09.373Z,101877.98
2018-10-21T13:37:43.213Z,101868.64
2018-10-21T13:40:17.195Z,101868.02
2018-10-21T13:42:50.994Z,101867.37
2018-10-21T13:45:24.857Z,101865.80
2018-10-21T13:47:58.793Z,101863.95
2018-10-21T13:50:32.626Z,101859.97
2018-10-21T13:53:06.565Z,101855.80
2018-10-21T13:55:40.385Z,101859.12
2018-10-21T13:58:14.342Z,101853.70
2018-10-21T14:00:48.192Z,101859.38
2018-10-21T14:03:22.174Z,101853.02
2018-10-21T14:05:56.014Z,101851.27
2018-10-21T14:08:29.988Z,101846.81
2018-10-21T14:11:03.885Z,101850.69
2018-10-21T14:13:37.755Z,101842.83
2018-10-21T14:16:11.641Z,101836.75
2018-10-21T14:18:45.574Z,101838.11
2018-10-21T14:21:19.338Z,101833.71
2018-10-21T14:23:53.309Z,101831.41
2018-10-21T14:26:27.105Z,101830.48
2018-10-21T14:29:01.035Z,101830.09
2018-10-21T14:31:34.848Z,101825.75
2018-10-21T14:34:08.756Z,101829.05
2018-10-21T14:36:42.600Z,101828.73
2018-10-21T14:39:16.556Z,101824.91
2018-10-21T14:41:50.315Z,101819.26
2018-10-21T14:44:24.192Z,101819.65
2018-10-21T14:46:58.013Z,101814.18
2018-10-21T14:49:31.858Z,101816.34
2018-10-21T14:52:05.900Z,101809.39
2018-10-21T14:54:39.741Z,101800.44
2018-10-21T14:57:13.691Z,101800.44
2018-10-21T14:59:47.656Z,101800.09
2018-10-21T15:02:21.506Z,101797.50
2018-10-21T15:04:55.403Z,101798.05
2018-10-21T15:07:29.233Z,101802.45
2018-10-21T15:10:03.134Z,101796.46
2018-10-21T15:12:37.059Z,101796.56
2018-10-21T15:15:11.608Z,101793.65
2018-10-21T15:17:45.423Z,101795.04
2018-10-21T15:20:19.303Z,101791.25
2018-10-21T15:22:53.202Z,101790.61
2018-10-21T15:25:27.079Z,101793.83
2018-10-21T15:28:00.892Z,101787.82
2018-10-21T15:30:34.716Z,101791.25
2018-10-21T15:33:08.565Z,101792.98
2018-10-21T15:35:42.436Z,101785.42
2018-10-21T15:38:16.294Z,101789.91
2018-10-21T15:40:50.278Z,101784.02
2018-10-21T15:43:24.115Z,101784.20
2018-10-21T15:45:58.025Z,101787.38
2018-10-21T15:48:31.992Z,101782.79
2018-10-21T15:51:05.992Z,101783.33
2018-10-21T15:53:39.820Z,101786.53
2018-10-21T15:56:13.877Z,101783.38
2018-10-21T15:58:47.589Z,101790.45
2018-10-21T16:01:21.500Z,101792.45
2018-10-21T16:03:55.402Z,101790.63
2018-10-21T16:06:29.268Z,101796.04
2018-10-21T16:09:03.192Z,101787.75
2018-10-21T16:11:37.075Z,101791.47
2018-10-21T16:14:11.070Z,101784.47
2018-10-21T16:16:44.922Z,101790.73
2018-10-21T16:19:18.748Z,101792.75
2018-10-21T16:21:52.780Z,101790.05
2018-10-21T16:24:26.626Z,101787.29
2018-10-21T16:27:00.483Z,101783.27
2018-10-21T16:29:34.280Z,101789.50
2018-10-21T16:32:08.472Z,101783.72
2018-10-21T16:34:42.279Z,101795.05
2018-10-21T16:37:16.188Z,101792.21
2018-10-21T16:39:49.971Z,101791.16
2018-10-21T16:42:23.837Z,101794.81
2018-10-21T16:44:57.924Z,101794.60
2018-10-21T16:47:31.781Z,101793.02
2018-10-21T16:50:06.616Z,101791.95
2018-10-21T16:52:40.688Z,101798.08
2018-10-21T16:55:15.241Z,101792.73
2018-10-21T16:57:49.136Z,101796.37
2018-10-21T17:00:23.031Z,101800.89
2018-10-21T17:02:57.032Z,101796.34
2018-10-21T17:05:30.892Z,101795.66
2018-10-21T17:08:04.805Z,101795.41
2018-10-21T17:10:39.444Z,101799.41
2018-10-21T17:13:13.493Z,101797.08
2018-10-21T17:15:47.257Z,101801.09
2018-10-21T17:18:21.218Z,101800.38
2018-10-21T17:20:55.168Z,101798.83
2018-10-21T17:23:29.109Z,101802.36
2018-10-21T17:26:02.939Z,101808.47
2018-10-21T17:28:36.823Z,101810.28
2018-10-21T17:31:10.653Z,101804.41
2018-10-21T17:33:44.686Z,101807.50
2018-10-21T17:36:18.512Z,101807.17
2018-10-21T17:38:52.372Z,101808.09
2018-10-21T17:41:26.228Z,101807.80
2018-10-21T17:44:00.077Z,101815.23
2018-10-21T17:46:33.973Z,101806.36
2018-10-21T17:49:08.011Z,101807.73
2018-10-21T17:51:41.873Z,101805.70
2018-10-21T17:54:15.751Z,101798.95
2018-10-21T17:56:54.651Z,101799.06
2018-10-21T17:59:29.092Z,101796.59
2018-10-21T18:02:03.135Z,101797.11
2018-10-21T18:04:37.051Z,101798.45
2018-10-21T18:07:10.909Z,101795.09
2018-10-21T18:09:44.866Z,101795.99
2018-10-21T18:12:18.934Z,101792.23
2018-10-21T18:14:52.792Z,101788.41
2018-10-21T18:17:26.638Z,101783.33
2018-10-21T18:20:00.573Z,101784.66
2018-10-21T18:22:34.369Z,101777.89
2018-10-21T18:25:09.249Z,101778.78
2018-10-21T18:27:43.200Z,101778.83
2018-10-21T18:30:17.088Z,101767.34
2018-10-21T18:32:50.909Z,101772.92
2018-10-21T18:35:24.783Z,101772.99
2018-10-21T18:37:58.668Z,101768.78
2018-10-21T18:40:32.530Z,101768.78
2018-10-21T18:43:06.479Z,101764.14
2018-10-21T18:45:40.316Z,101760.38
2018-10-21T18:48:14.244Z,101764.71
2018-10-21T18:50:48.180Z,101767.27
2018-10-21T18:53:22.004Z,101766.45
2018-10-21T18:55:55.943Z,101760.50
2018-10-21T18:58:29.807Z,101758.40
2018-10-21T19:01:03.760Z,101757.59
2018-10-21T19:03:37.600Z,101756.76
2018-10-21T19:06:11.537Z,101753.84
2018-10-21T19:08:45.373Z,101760.69
2018-10-21T19:11:19.421Z,101761.12
2018-10-21T19:13:53.305Z,101758.59
2018-10-21T19:16:27.171Z,101757.77
2018-10-21T19:19:01.014Z,101756.50
2018-10-21T19:21:34.889Z,101752.66
2018-10-21T19:24:08.770Z,101756.91
2018-10-21T19:26:42.651Z,101753.97
2018-10-21T19:29:16.481Z,101750.14
2018-10-21T19:31:50.350Z,101753.56
2018-10-21T19:34:24.391Z,101750.15
2018-10-21T19:36:58.206Z,101752.73
2018-10-21T19:39:32.046Z,101752.30
2018-10-21T19:42:06.059Z,101744.63
2018-10-21T19:44:39.915Z,101750.61
2018-10-21T19:47:13.804Z,101752.73
2018-10-21T19:49:47.656Z,101749.36
2018-10-21T19:52:21.525Z,101751.06
2018-10-21T19:54:55.365Z,101753.62
2018-10-21T19:57:29.467Z,101752.36
2018-10-21T20:00:03.546Z,101762.17
2018-10-21T20:02:37.501Z,101761.28
2018-10-21T20:05:11.631Z,101768.09
2018-10-21T20:07:45.604Z,101767.26
2018-10-21T20:10:19.519Z,101765.14
2018-10-21T20:12:53.428Z,101773.64
2018-10-21T20:15:27.250Z,101774.52
2018-10-21T20:18:01.263Z,101775.77
2018-10-21T20:20:35.046Z,101777.05
2018-10-21T20:23:08.981Z,101769.37
2018-10-21T20:25:42.807Z,101774.05
2018-10-21T20:28:16.768Z,101773.18
2018-10-21T20:30:50.677Z,101775.30
2018-10-21T20:33:25.944Z,101775.30
2018-10-21T20:36:01.208Z,101773.17
2018-10-21T20:38:36.703Z,101774.41
2018-10-21T20:41:11.659Z,101776.53
2018-10-21T20:43:46.507Z,101772.25
2018-10-21T20:46:21.565Z,101767.12
2018-10-21T20:48:55.588Z,101762.81
2018-10-21T20:51:29.568Z,101767.05
2018-10-21T20:54:03.518Z,101769.59
2018-10-21T20:56:37.480Z,101769.57
2018-10-21T20:59:11.335Z,101770.81
2018-10-21T21:01:45.179Z,101778.91
2018-10-21T21:04:19.116Z,101779.30
2018-10-21T21:06:52.949Z,101780.06
2018-10-21T21:09:26.858Z,101779.65
2018-10-21T21:12:00.700Z,101785.57
2018-10-21T21:14:34.816Z,101779.55
2018-10-21T21:17:08.618Z,101773.50
2018-10-21T21:19:42.494Z,101773.44
2018-10-21T21:22:16.393Z,101773.40
2018-10-21T21:24:50.286Z,101777.61
2018-10-21T21:27:24.127Z,101774.56
2018-10-21T21:29:58.200Z,101774.12
2018-10-21T21:32:32.014Z,101768.10
2018-10-21T21:35:06.893Z,101771.46
2018-10-21T21:37:40.741Z,101768.47
2018-10-21T21:40:14.995Z,101768.44
2018-10-21T21:42:48.805Z,101767.95
2018-10-21T21:45:22.742Z,101774.30
2018-10-21T21:47:56.634Z,101773.03
2018-10-21T21:50:30.557Z,101772.10
2018-10-21T21:53:04.430Z,101763.95
2018-10-21T21:55:38.265Z,101762.67
2018-10-21T21:58:12.143Z,101753.23
2018-10-21T22:00:46.042Z,101753.64
2018-10-21T22:03:19.873Z,101761.73
2018-10-21T22:05:53.781Z,101759.15
2018-10-21T22:08:27.639Z,101758.68
2018-10-21T22:11:01.525Z,101759.94
2018-10-21T22:13:35.994Z,101760.34
2018-10-21T22:16:09.902Z,101760.72
2018-10-21T22:18:43.771Z,101750.02
2018-10-21T22:21:17.715Z,101747.05
2018-10-21T22:23:51.544Z,101751.27
2018-10-21T22:26:25.430Z,101751.68
2018-10-21T22:28:59.254Z,101748.27
2018-10-21T22:31:33.146Z,101738.86
2018-10-21T22:34:07.025Z,101724.78
2018-10-21T22:36:40.933Z,101727.34
2018-10-21T22:39:14.859Z,101730.35
2018-10-21T22:41:48.814Z,101729.04
2018-10-21T22:44:22.648Z,101732.04
2018-10-21T22:46:56.488Z,101729.45
2018-10-21T22:49:30.328Z,101735.45
2018-10-21T22:52:04.252Z,101740.95
2018-10-21T22:54:38.081Z,101742.20
2018-10-21T22:57:16.990Z,101748.18
2018-10-21T22:59:51.221Z,101741.70
2018-10-21T23:02:25.168Z,101737.41
2018-10-21T23:04:59.006Z,101735.66
2018-10-21T23:07:32.867Z,101736.94
2018-10-21T23:10:06.935Z,101742.00
2018-10-21T23:12:40.813Z,101738.52
2018-10-21T23:15:14.629Z,101732.95
2018-10-21T23:17:48.504Z,101730.79
2018-10-21T23:20:22.313Z,101723.49
2018-10-21T23:22:56.234Z,101726.06
2018-10-21T23:25:30.035Z,101727.31
2018-10-21T23:28:04.115Z,101723.45
2018-10-21T23:30:37.915Z,101729.40
2018-10-21T23:33:11.739Z,101724.67
2018-10-21T23:35:45.568Z,101716.09
2018-10-21T23:38:19.426Z,101724.19
2018-10-21T23:40:53.307Z,101723.31
2018-10-21T23:43:27.158Z,101720.74
2018-10-21T23:46:01.112Z,101722.03
2018-10-21T23:48:34.946Z,101717.77
2018-10-21T23:51:08.772Z,101712.16
2018-10-21T23:53:42.649Z,101717.73
2018-10-21T23:56:16.670Z,101714.29
2018-10-21T23:58:50.714Z,101712.16
